sensor_id;sensor_type;location;lat;lon;timestamp;pressure;altitude;pressure_sealevel;temperature;humidity
61537;BME280;48695;53.480;-6.300;2023-03-26T08:31:08;100239.81;;;11.45;72.14
61537;BME280;48695;53.480;-6.300;2023-03-26T08:33:38;100227.16;;;11.33;71.78
61537;BME280;48695;53.480;-6.300;2023-03-26T08:36:05;100250.38;;;11.42;72.03
61537;BME280;48695;53.480;-6.300;2023-03-26T08:38:31;100259.13;;;11.41;72.27
61537;BME280;48695;53.480;-6.300;2023-03-26T10:09:44;100501.38;;;11.72;71.16
61537;BME280;48695;53.480;-6.300;2023-03-26T10:12:31;100512.69;;;11.72;71.15
61537;BME280;48695;53.480;-6.300;2023-03-26T10:17:53;100511.25;;;11.62;71.09
61537;BME280;48695;53.480;-6.300;2023-03-26T10:20:36;100530.94;;;11.74;70.74
61537;BME280;48695;53.480;-6.300;2023-03-26T10:23:12;100538.84;;;11.70;71.32
61537;BME280;48695;53.480;-6.300;2023-03-26T10:31:39;100553.53;;;11.76;70.53
61537;BME280;48695;53.480;-6.300;2023-03-26T12:00:33;100762.34;;;12.85;67.41
61537;BME280;48695;53.480;-6.300;2023-03-26T12:02:59;100771.81;;;12.89;67.76
61537;BME280;48695;53.480;-6.300;2023-03-26T12:05:27;100776.03;;;12.94;67.66
61537;BME280;48695;53.480;-6.300;2023-03-26T12:07:56;100780.22;;;13.00;67.52
61537;BME280;48695;53.480;-6.300;2023-03-26T12:10:26;100800.84;;;13.11;67.36
61537;BME280;48695;53.480;-6.300;2023-03-26T12:13:01;100811.84;;;13.23;66.92
61537;BME280;48695;53.480;-6.300;2023-03-26T12:15:31;100746.41;;;12.91;66.50
61537;BME280;48695;53.480;-6.300;2023-03-26T12:17:58;100811.34;;;13.39;65.62
61537;BME280;48695;53.480;-6.300;2023-03-26T12:20:41;100823.25;;;13.49;66.04
61537;BME280;48695;53.480;-6.300;2023-03-26T12:26:11;100825.88;;;13.75;65.62
61537;BME280;48695;53.480;-6.300;2023-03-26T12:28:43;100838.72;;;13.83;65.29
61537;BME280;48695;53.480;-6.300;2023-03-26T12:31:11;100844.72;;;13.87;64.02
61537;BME280;48695;53.480;-6.300;2023-03-26T12:33:43;100846.44;;;13.88;63.24
61537;BME280;48695;53.480;-6.300;2023-03-26T12:36:27;100853.09;;;13.98;64.17
61537;BME280;48695;53.480;-6.300;2023-03-26T12:38:54;100850.59;;;13.95;63.06
61537;BME280;48695;53.480;-6.300;2023-03-26T12:41:32;100867.03;;;14.00;63.68
61537;BME280;48695;53.480;-6.300;2023-03-26T12:44:33;100870.47;;;14.02;63.66
61537;BME280;48695;53.480;-6.300;2023-03-26T12:47:14;100870.47;;;14.02;63.55
61537;BME280;48695;53.480;-6.300;2023-03-26T12:49:46;100811.44;;;13.62;62.94
61537;BME280;48695;53.480;-6.300;2023-03-26T12:55:38;100888.31;;;14.17;63.83
61537;BME280;48695;53.480;-6.300;2023-03-26T12:58:37;100907.19;;;14.28;63.82
61537;BME280;48695;53.480;-6.300;2023-03-26T13:06:41;100914.03;;;14.83;64.98
61537;BME280;48695;53.480;-6.300;2023-03-26T13:57:14;100973.56;;;18.49;56.02
61537;BME280;48695;53.480;-6.300;2023-03-26T14:00:26;100978.63;;;18.71;55.99
61537;BME280;48695;53.480;-6.300;2023-03-26T14:03:19;100980.31;;;18.89;56.75
61537;BME280;48695;53.480;-6.300;2023-03-26T14:05:48;100984.66;;;18.90;51.79
61537;BME280;48695;53.480;-6.300;2023-03-26T14:08:38;100980.44;;;19.04;54.63
61537;BME280;48695;53.480;-6.300;2023-03-26T14:11:15;100987.28;;;19.08;53.96
61537;BME280;48695;53.480;-6.300;2023-03-26T16:24:14;101180.25;;;18.59;44.96
61537;BME280;48695;53.480;-6.300;2023-03-26T16:32:16;101190.72;;;18.24;45.79
61537;BME280;48695;53.480;-6.300;2023-03-26T16:35:01;101200.00;;;18.14;46.46
61537;BME280;48695;53.480;-6.300;2023-03-26T16:48:39;101228.81;;;17.81;43.64
61537;BME280;48695;53.480;-6.300;2023-03-26T16:54:32;101238.13;;;17.69;45.46
61537;BME280;48695;53.480;-6.300;2023-03-26T17:05:19;101246.94;;;17.48;46.30
61537;BME280;48695;53.480;-6.300;2023-03-26T17:10:37;101276.44;;;17.37;47.97
61537;BME280;48695;53.480;-6.300;2023-03-26T17:13:14;101275.84;;;17.30;47.37
61537;BME280;48695;53.480;-6.300;2023-03-26T17:18:40;101290.47;;;17.17;45.81
61537;BME280;48695;53.480;-6.300;2023-03-26T17:21:24;101296.84;;;17.11;46.82
61537;BME280;48695;53.480;-6.300;2023-03-26T17:27:17;101309.91;;;16.93;46.90
61537;BME280;48695;53.480;-6.300;2023-03-26T17:41:04;101324.66;;;16.51;46.84
61537;BME280;48695;53.480;-6.300;2023-03-26T17:49:21;101344.44;;;16.40;48.47
61537;BME280;48695;53.480;-6.300;2023-03-26T17:51:55;101341.34;;;16.28;48.05
61537;BME280;48695;53.480;-6.300;2023-03-26T17:54:43;101337.47;;;16.14;48.58
61537;BME280;48695;53.480;-6.300;2023-03-26T17:57:40;101353.16;;;16.17;48.65
61537;BME280;48695;53.480;-6.300;2023-03-26T18:00:13;101350.81;;;16.09;47.83
61537;BME280;48695;53.480;-6.300;2023-03-26T18:02:50;101352.03;;;15.99;48.44
61537;BME280;48695;53.480;-6.300;2023-03-26T18:05:18;101342.94;;;15.82;48.56
61537;BME280;48695;53.480;-6.300;2023-03-26T18:08:31;101372.72;;;15.85;48.76
61537;BME280;48695;53.480;-6.300;2023-03-26T18:13:21;101377.50;;;15.73;49.06
61537;BME280;48695;53.480;-6.300;2023-03-26T18:18:42;101341.19;;;15.28;48.54
61537;BME280;48695;53.480;-6.300;2023-03-26T18:21:17;101378.25;;;15.49;49.21
61537;BME280;48695;53.480;-6.300;2023-03-26T18:23:46;101383.66;;;15.44;51.09
61537;BME280;48695;53.480;-6.300;2023-03-26T18:26:16;101378.59;;;15.38;49.43
61537;BME280;48695;53.480;-6.300;2023-03-26T18:28:48;101377.09;;;15.31;50.04
61537;BME280;48695;53.480;-6.300;2023-03-26T18:31:16;101383.44;;;15.24;49.74
61537;BME280;48695;53.480;-6.300;2023-03-26T18:33:45;101379.22;;;15.18;49.86
61537;BME280;48695;53.480;-6.300;2023-03-26T18:36:11;101389.03;;;15.13;51.39
61537;BME280;48695;53.480;-6.300;2023-03-26T18:38:37;101394.47;;;15.07;50.33
61537;BME280;48695;53.480;-6.300;2023-03-26T18:41:06;101398.09;;;15.03;51.24
61537;BME280;48695;53.480;-6.300;2023-03-26T18:43:32;101398.31;;;14.97;51.13
61537;BME280;48695;53.480;-6.300;2023-03-26T18:45:58;101400.19;;;14.92;51.23
61537;BME280;48695;53.480;-6.300;2023-03-26T18:48:26;101411.72;;;14.88;51.86
61537;BME280;48695;53.480;-6.300;2023-03-26T18:50:56;101417.09;;;14.83;51.90
61537;BME280;48695;53.480;-6.300;2023-03-26T18:53:25;101423.41;;;14.77;51.87
61537;BME280;48695;53.480;-6.300;2023-03-26T18:55:54;101427.97;;;14.71;52.29
61537;BME280;48695;53.480;-6.300;2023-03-26T18:58:28;101428.91;;;14.68;51.72
61537;BME280;48695;53.480;-6.300;2023-03-26T19:01:07;101433.44;;;14.63;53.35
61537;BME280;48695;53.480;-6.300;2023-03-26T19:03:36;101439.78;;;14.56;52.63
61537;BME280;48695;53.480;-6.300;2023-03-26T19:06:06;101445.22;;;14.50;52.21
61537;BME280;48695;53.480;-6.300;2023-03-26T19:08:35;101445.31;;;14.44;52.90
61537;BME280;48695;53.480;-6.300;2023-03-26T19:11:05;101446.31;;;14.40;54.35
61537;BME280;48695;53.480;-6.300;2023-03-26T19:13:34;101446.56;;;14.31;52.82
61537;BME280;48695;53.480;-6.300;2023-03-26T19:16:06;101459.78;;;14.27;52.08
61537;BME280;48695;53.480;-6.300;2023-03-26T19:18:32;101456.50;;;14.18;53.91
61537;BME280;48695;53.480;-6.300;2023-03-26T19:20:59;101461.06;;;14.11;52.24
61537;BME280;48695;53.480;-6.300;2023-03-26T19:23:31;101450.03;;;13.97;51.65
61537;BME280;48695;53.480;-6.300;2023-03-26T19:26:02;101471.91;;;13.97;52.24
61537;BME280;48695;53.480;-6.300;2023-03-26T19:28:42;101472.97;;;13.89;51.10
61537;BME280;48695;53.480;-6.300;2023-03-26T19:31:40;101473.22;;;13.80;51.25
61537;BME280;48695;53.480;-6.300;2023-03-26T19:36:57;101485.09;;;13.59;51.70
61537;BME280;48695;53.480;-6.300;2023-03-26T19:39:43;101493.16;;;13.48;51.69
61537;BME280;48695;53.480;-6.300;2023-03-26T19:42:14;101496.94;;;13.36;51.74
61537;BME280;48695;53.480;-6.300;2023-03-26T19:44:42;101503.28;;;13.26;51.28
61537;BME280;48695;53.480;-6.300;2023-03-26T19:47:19;101509.53;;;13.17;51.65
61537;BME280;48695;53.480;-6.300;2023-03-26T19:49:53;101514.19;;;13.05;51.77
61537;BME280;48695;53.480;-6.300;2023-03-26T19:57:29;101514.81;;;12.71;52.67
61537;BME280;48695;53.480;-6.300;2023-03-26T19:59:55;101506.31;;;12.58;51.73
61537;BME280;48695;53.480;-6.300;2023-03-26T20:02:21;101518.66;;;12.52;51.49
61537;BME280;48695;53.480;-6.300;2023-03-26T20:04:47;101513.75;;;12.33;51.25
61537;BME280;48695;53.480;-6.300;2023-03-26T20:07:20;101526.88;;;12.32;51.63
61537;BME280;48695;53.480;-6.300;2023-03-26T20:09:51;101523.53;;;12.20;51.15
61537;BME280;48695;53.480;-6.300;2023-03-26T20:12:17;101450.16;;;11.71;51.40
61537;BME280;48695;53.480;-6.300;2023-03-26T20:14:42;101518.63;;;12.02;51.57
61537;BME280;48695;53.480;-6.300;2023-03-26T20:17:11;101520.47;;;11.94;51.79
61537;BME280;48695;53.480;-6.300;2023-03-26T20:19:38;101507.72;;;11.71;51.82
61537;BME280;48695;53.480;-6.300;2023-03-26T20:22:04;101534.66;;;11.78;52.39
61537;BME280;48695;53.480;-6.300;2023-03-26T20:24:31;101542.66;;;11.67;52.35
61537;BME280;48695;53.480;-6.300;2023-03-26T20:26:56;101547.09;;;11.60;52.21
61537;BME280;48695;53.480;-6.300;2023-03-26T20:29:22;101545.47;;;11.52;52.15
61537;BME280;48695;53.480;-6.300;2023-03-26T20:31:47;101537.81;;;11.35;51.67
61537;BME280;48695;53.480;-6.300;2023-03-26T20:34:19;101552.66;;;11.36;51.62
61537;BME280;48695;53.480;-6.300;2023-03-26T20:36:45;101555.34;;;11.28;52.21
61537;BME280;48695;53.480;-6.300;2023-03-26T20:39:10;101550.22;;;11.19;51.95
61537;BME280;48695;53.480;-6.300;2023-03-26T20:41:42;101544.22;;;11.12;51.85
61537;BME280;48695;53.480;-6.300;2023-03-26T20:44:13;101549.53;;;11.03;52.30
61537;BME280;48695;53.480;-6.300;2023-03-26T20:46:40;101550.50;;;10.93;52.10
61537;BME280;48695;53.480;-6.300;2023-03-26T20:49:07;101551.47;;;10.86;52.21
61537;BME280;48695;53.480;-6.300;2023-03-26T20:51:35;101551.56;;;10.77;52.31
61537;BME280;48695;53.480;-6.300;2023-03-26T20:54:02;101562.06;;;10.71;52.97
61537;BME280;48695;53.480;-6.300;2023-03-26T20:56:28;101564.75;;;10.61;52.72
61537;BME280;48695;53.480;-6.300;2023-03-26T20:58:53;101564.81;;;10.55;52.59
61537;BME280;48695;53.480;-6.300;2023-03-26T21:01:21;101560.56;;;10.45;53.51
61537;BME280;48695;53.480;-6.300;2023-03-26T21:03:47;101566.69;;;10.38;53.53
61537;BME280;48695;53.480;-6.300;2023-03-26T21:06:15;101571.09;;;10.31;53.84
61537;BME280;48695;53.480;-6.300;2023-03-26T21:08:42;101576.38;;;10.24;54.39
61537;BME280;48695;53.480;-6.300;2023-03-26T21:14:15;101584.28;;;10.10;53.74
61537;BME280;48695;53.480;-6.300;2023-03-26T21:16:42;101581.72;;;10.02;53.68
61537;BME280;48695;53.480;-6.300;2023-03-26T21:19:08;101586.97;;;9.96;54.13
61537;BME280;48695;53.480;-6.300;2023-03-26T21:21:55;101591.38;;;9.90;54.31
61537;BME280;48695;53.480;-6.300;2023-03-26T21:29:39;101618.44;;;9.69;54.20
61537;BME280;48695;53.480;-6.300;2023-03-26T21:32:04;101617.56;;;9.62;54.51
61537;BME280;48695;53.480;-6.300;2023-03-26T21:34:30;101620.19;;;9.57;54.97
61537;BME280;48695;53.480;-6.300;2023-03-26T21:36:59;101624.56;;;9.51;55.18
61537;BME280;48695;53.480;-6.300;2023-03-26T21:39:25;101631.56;;;9.44;55.33
61537;BME280;48695;53.480;-6.300;2023-03-26T21:41:52;101633.31;;;9.36;55.50
61537;BME280;48695;53.480;-6.300;2023-03-26T21:44:18;101638.53;;;9.34;56.33
61537;BME280;48695;53.480;-6.300;2023-03-26T21:46:46;101646.34;;;9.31;55.69
61537;BME280;48695;53.480;-6.300;2023-03-26T21:49:14;101639.41;;;9.26;55.60
61537;BME280;48695;53.480;-6.300;2023-03-26T21:51:39;101642.88;;;9.22;54.90
61537;BME280;48695;53.480;-6.300;2023-03-26T21:54:24;101641.19;;;9.18;54.83
61537;BME280;48695;53.480;-6.300;2023-03-26T22:02:20;101637.72;;;9.00;55.22
61537;BME280;48695;53.480;-6.300;2023-03-26T22:04:57;101618.66;;;8.83;54.84
61537;BME280;48695;53.480;-6.300;2023-03-26T22:09:59;101636.00;;;8.78;55.74
61537;BME280;48695;53.480;-6.300;2023-03-26T22:12:25;101644.72;;;8.77;55.75
61537;BME280;48695;53.480;-6.300;2023-03-26T22:14:51;101652.50;;;8.72;55.77
61537;BME280;48695;53.480;-6.300;2023-03-26T22:17:17;101655.97;;;8.68;56.17
61537;BME280;48695;53.480;-6.300;2023-03-26T22:19:43;101655.09;;;8.63;56.19
61537;BME280;48695;53.480;-6.300;2023-03-26T22:22:08;101656.84;;;8.60;56.96
61537;BME280;48695;53.480;-6.300;2023-03-26T22:24:35;101659.44;;;8.55;56.82
61537;BME280;48695;53.480;-6.300;2023-03-26T22:27:00;101668.97;;;8.51;56.87
61537;BME280;48695;53.480;-6.300;2023-03-26T22:29:26;101675.91;;;8.46;56.54
61537;BME280;48695;53.480;-6.300;2023-03-26T22:31:51;101674.19;;;8.42;56.60
61537;BME280;48695;53.480;-6.300;2023-03-26T22:34:17;101678.44;;;8.36;56.61
61537;BME280;48695;53.480;-6.300;2023-03-26T22:36:44;101684.53;;;8.35;58.60
61537;BME280;48695;53.480;-6.300;2023-03-26T22:39:09;101688.84;;;8.31;57.32
61537;BME280;48695;53.480;-6.300;2023-03-26T22:41:36;101667.13;;;8.14;58.74
61537;BME280;48695;53.480;-6.300;2023-03-26T22:44:01;101686.25;;;8.22;59.56
61537;BME280;48695;53.480;-6.300;2023-03-26T22:46:27;101681.00;;;8.13;59.26
61537;BME280;48695;53.480;-6.300;2023-03-26T22:48:53;101700.06;;;8.15;58.69
61537;BME280;48695;53.480;-6.300;2023-03-26T22:51:20;101697.47;;;8.12;58.59
61537;BME280;48695;53.480;-6.300;2023-03-26T22:53:45;101707.88;;;8.09;58.79
61537;BME280;48695;53.480;-6.300;2023-03-26T22:56:10;101715.66;;;8.05;59.00
61537;BME280;48695;53.480;-6.300;2023-03-26T22:58:38;101711.31;;;8.03;59.50
61537;BME280;48695;53.480;-6.300;2023-03-26T23:01:09;101712.16;;;8.00;59.33
61537;BME280;48695;53.480;-6.300;2023-03-26T23:03:35;101717.38;;;7.97;60.33
61537;BME280;48695;53.480;-6.300;2023-03-26T23:06:04;101718.22;;;7.93;60.38
61537;BME280;48695;53.480;-6.300;2023-03-26T23:08:30;101715.59;;;7.90;58.83
61537;BME280;48695;53.480;-6.300;2023-03-26T23:10:56;101718.16;;;7.81;60.82
61537;BME280;48695;53.480;-6.300;2023-03-26T23:13:23;101729.44;;;7.83;60.62
61537;BME280;48695;53.480;-6.300;2023-03-26T23:15:50;101734.59;;;7.80;60.89
61537;BME280;48695;53.480;-6.300;2023-03-26T23:18:17;101730.28;;;7.76;61.10
61537;BME280;48695;53.480;-6.300;2023-03-26T23:20:55;101739.78;;;7.74;59.73
61537;BME280;48695;53.480;-6.300;2023-03-26T23:23:26;101731.09;;;7.69;60.30
61537;BME280;48695;53.480;-6.300;2023-03-26T23:26:00;101740.59;;;7.65;61.11
61537;BME280;48695;53.480;-6.300;2023-03-26T23:28:27;101738.84;;;7.61;61.37
61537;BME280;48695;53.480;-6.300;2023-03-26T23:30:57;101740.56;;;7.56;61.89
61537;BME280;48695;53.480;-6.300;2023-03-26T23:33:25;101738.78;;;7.52;61.94
61537;BME280;48695;53.480;-6.300;2023-03-26T23:35:51;101738.78;;;7.50;59.65
61537;BME280;48695;53.480;-6.300;2023-03-26T23:38:18;101740.50;;;7.47;61.32
61537;BME280;48695;53.480;-6.300;2023-03-26T23:40:47;101747.38;;;7.42;60.63
61537;BME280;48695;53.480;-6.300;2023-03-26T23:43:12;101750.81;;;7.38;60.03
61537;BME280;48695;53.480;-6.300;2023-03-26T23:45:38;101752.50;;;7.34;59.90
61537;BME280;48695;53.480;-6.300;2023-03-26T23:48:05;101759.44;;;7.31;60.75
61537;BME280;48695;53.480;-6.300;2023-03-26T23:50:30;101741.13;;;7.17;61.57
61537;BME280;48695;53.480;-6.300;2023-03-26T23:52:57;101759.34;;;7.24;62.41
61537;BME280;48695;53.480;-6.300;2023-03-26T23:55:26;101768.00;;;7.23;62.52
61537;BME280;48695;53.480;-6.300;2023-03-26T23:57:52;101754.94;;;7.13;62.62
